Main page
METAR-TAF:

METAR-TAF

Airports :

Mont-De-Marsan, France

latitude: 43-55N, longitude: 000-30W, elevation: 62 m

Current weather observation

The report was made 16 minutes ago, at 03:30 UTC
Wind 1 kt from the Northeast
Temperature 5°C
Humidity 93%
Pressure 1024 hPa
Visibility 10 km or more
no clouds below 1500 m and no cumulonimbus

METAR: LFBM 200330Z AUTO 04001KT CAVOK 05/04 Q1024 TEMPO 0600 FG VV///

Time: 05:46 (03:46 UTC)

Forecast

The report was made 1 hour and 46 minutes ago, at 02:00 UTC
Forecast valid from 20 at 03 UTC to 21 at 03 UTC
Wind 2 kt from variable directions
Visibility 10 km or more
no clouds below 1500 m and no cumulonimbus
Probability 40% :
Temporary
from 20 at 04 UTC to 20 at 08 UTC
Visibility: 0600 m
fog
Becoming
from 20 at 06 UTC to 20 at 08 UTC
Visibility 10 km or more
no clouds below 1500 m and no cumulonimbus

TAF: LFBM 200200Z 2003/2103 VRB02KT CAVOK PROB40 TEMPO 2004/2008 0600 FG VV/// BECMG 2006/2008 CAVOK

Weather observations and forecasts of more than 4000 airports (METAR and TAF reports).

The available stations are represented by yellow and red dots on the map.

Hover mouse over dot to see the name of the station.

Then click to see weather observations and forecasts.

To change the map : click on the green buttons with a black cross to zoom in, on the green button with a dash to zoom out, or on the green arrows for adjacent maps.


METAR-TAF: